createdAt,value
2023-02-12T00:01:44.800Z,27.42
2023-02-12T00:04:12.608Z,26.92
2023-02-12T00:06:40.676Z,26.40
2023-02-12T00:09:09.805Z,26.80
2023-02-12T00:11:37.694Z,28.23
2023-02-12T00:14:05.774Z,26.90
2023-02-12T00:16:33.584Z,27.63
2023-02-12T00:19:01.800Z,26.77
2023-02-12T00:21:29.773Z,25.25
2023-02-12T00:23:57.799Z,25.92
2023-02-12T00:26:26.987Z,26.25
2023-02-12T00:28:55.660Z,26.17
2023-02-12T00:31:25.412Z,27.33
2023-02-12T00:33:53.392Z,26.33
2023-02-12T00:36:24.168Z,27.83
2023-02-12T00:38:53.022Z,26.10
2023-02-12T00:41:21.084Z,26.88
2023-02-12T00:43:50.478Z,27.27
2023-02-12T00:46:18.322Z,27.95
2023-02-12T00:48:46.520Z,26.92
2023-02-12T00:51:15.036Z,28.65
2023-02-12T00:53:42.892Z,27.52
2023-02-12T00:56:10.791Z,27.10
2023-02-12T00:58:38.744Z,26.98
2023-02-12T01:01:08.198Z,27.73
2023-02-12T01:03:35.976Z,28.40
2023-02-12T01:06:03.847Z,28.20
2023-02-12T01:08:31.664Z,26.33
2023-02-12T01:11:00.816Z,26.90
2023-02-12T01:13:30.308Z,28.27
2023-02-12T01:16:09.235Z,27.77
2023-02-12T01:18:38.214Z,27.48
2023-02-12T01:21:10.780Z,27.00
2023-02-12T01:23:38.542Z,26.85
2023-02-12T01:26:07.405Z,27.23
2023-02-12T01:28:35.366Z,27.83
2023-02-12T01:31:05.152Z,28.83
2023-02-12T01:33:34.421Z,27.88
2023-02-12T01:36:02.233Z,28.85
2023-02-12T01:38:30.314Z,27.92
2023-02-12T01:41:03.812Z,27.83
2023-02-12T01:43:31.912Z,28.50
2023-02-12T01:46:01.096Z,27.90
2023-02-12T01:48:31.808Z,29.13
2023-02-12T01:51:03.730Z,28.92
2023-02-12T01:53:36.829Z,27.00
2023-02-12T01:56:05.582Z,27.80
2023-02-12T01:58:37.137Z,27.23
2023-02-12T02:01:08.235Z,27.17
2023-02-12T02:03:38.813Z,26.02
2023-02-12T02:06:12.663Z,27.33
2023-02-12T02:08:41.649Z,28.15
2023-02-12T02:11:23.784Z,27.83
2023-02-12T02:14:09.781Z,28.33
2023-02-12T02:16:38.704Z,29.98
2023-02-12T02:19:13.266Z,29.73
2023-02-12T02:22:03.025Z,29.40
2023-02-12T02:25:07.059Z,29.70
2023-02-12T02:27:42.956Z,29.65
2023-02-12T02:30:30.641Z,29.70
2023-02-12T02:33:11.369Z,27.70
2023-02-12T02:35:45.799Z,28.33
2023-02-12T02:38:22.102Z,26.92
2023-02-12T02:40:55.720Z,28.00
2023-02-12T02:43:28.463Z,28.13
2023-02-12T02:46:03.628Z,28.35
2023-02-12T02:48:36.581Z,27.83
2023-02-12T02:51:09.364Z,26.47
2023-02-12T02:53:41.790Z,25.90
2023-02-12T02:56:15.428Z,26.17
2023-02-12T02:58:47.256Z,25.35
2023-02-12T03:01:20.988Z,25.63
2023-02-12T03:03:54.746Z,25.55
2023-02-12T03:06:29.554Z,26.27
2023-02-12T03:08:59.949Z,26.47
2023-02-12T03:11:29.891Z,25.13
2023-02-12T03:14:03.695Z,25.88
2023-02-12T03:16:35.567Z,26.95
2023-02-12T03:19:10.114Z,25.55
2023-02-12T03:21:43.823Z,26.42
2023-02-12T03:24:16.126Z,26.15
2023-02-12T03:26:48.125Z,25.58
2023-02-12T03:29:16.388Z,25.63
2023-02-12T03:32:01.461Z,25.55
2023-02-12T03:34:41.107Z,24.17
2023-02-12T03:37:13.921Z,25.10
2023-02-12T03:39:50.402Z,25.10
2023-02-12T03:42:25.562Z,24.55
2023-02-12T03:44:57.706Z,25.00
2023-02-12T03:47:35.404Z,25.17
2023-02-12T03:50:10.873Z,25.90
2023-02-12T03:52:38.908Z,25.77
2023-02-12T03:55:08.215Z,26.10
2023-02-12T03:57:41.701Z,25.70
2023-02-12T04:00:13.427Z,25.83
2023-02-12T04:02:43.072Z,23.33
2023-02-12T04:05:20.211Z,24.40
2023-02-12T04:07:48.596Z,25.27
2023-02-12T04:10:17.243Z,24.67
2023-02-12T04:12:53.266Z,24.90
2023-02-12T04:15:47.990Z,26.08
2023-02-12T04:18:23.709Z,25.58
2023-02-12T04:20:59.048Z,25.38
2023-02-12T04:23:43.433Z,25.73
2023-02-12T04:26:21.348Z,25.48
2023-02-12T04:28:58.131Z,25.97
2023-02-12T04:31:30.929Z,25.38
2023-02-12T04:34:08.054Z,24.73
2023-02-12T04:36:41.094Z,25.58
2023-02-12T04:39:12.049Z,25.98
2023-02-12T04:41:40.559Z,24.88
2023-02-12T04:44:19.533Z,24.67
2023-02-12T04:46:47.343Z,25.88
2023-02-12T04:49:18.765Z,25.60
2023-02-12T04:51:47.333Z,25.33
2023-02-12T04:54:16.176Z,26.57
2023-02-12T04:56:44.693Z,25.80
2023-02-12T04:59:12.859Z,25.55
2023-02-12T05:01:41.096Z,25.33
2023-02-12T05:04:10.969Z,26.83
2023-02-12T05:06:41.167Z,24.45
2023-02-12T05:09:09.753Z,24.90
2023-02-12T05:11:37.518Z,25.58
2023-02-12T05:14:05.361Z,27.10
2023-02-12T05:16:33.259Z,27.70
2023-02-12T05:19:01.065Z,24.52
2023-02-12T05:21:29.131Z,26.13
2023-02-12T05:23:58.269Z,26.05
2023-02-12T05:26:26.044Z,25.10
2023-02-12T05:28:53.876Z,25.10
2023-02-12T05:31:22.145Z,25.03
2023-02-12T05:33:51.245Z,25.17
2023-02-12T05:36:20.796Z,24.35
2023-02-12T05:38:49.210Z,25.83
2023-02-12T05:41:21.168Z,25.23
2023-02-12T05:43:49.974Z,26.42
2023-02-12T05:46:19.022Z,25.98
2023-02-12T05:48:47.208Z,26.50
2023-02-12T05:51:17.021Z,25.98
2023-02-12T05:53:44.958Z,27.15
2023-02-12T05:56:14.800Z,26.52
2023-02-12T05:58:46.118Z,26.38
2023-02-12T06:01:17.344Z,26.67
2023-02-12T06:03:45.462Z,26.83
2023-02-12T06:06:13.748Z,26.45
2023-02-12T06:08:41.926Z,26.17
2023-02-12T06:11:14.231Z,26.40
2023-02-12T06:13:43.586Z,29.88
2023-02-12T06:16:18.777Z,30.17
2023-02-12T06:18:46.614Z,29.30
2023-02-12T06:21:14.642Z,31.90
2023-02-12T06:23:42.532Z,30.38
2023-02-12T06:26:10.732Z,34.10
2023-02-12T06:28:38.904Z,37.03
2023-02-12T06:31:19.177Z,36.22
2023-02-12T06:33:47.073Z,38.92
2023-02-12T06:36:15.261Z,35.97
2023-02-12T06:38:43.165Z,35.70
2023-02-12T06:41:11.051Z,36.90
2023-02-12T06:43:39.049Z,37.80
2023-02-12T06:46:09.109Z,39.88
2023-02-12T06:48:37.041Z,37.65
2023-02-12T06:51:09.745Z,39.88
2023-02-12T06:53:37.833Z,40.13
2023-02-12T06:56:11.040Z,40.15
2023-02-12T06:58:39.316Z,40.77
2023-02-12T07:01:13.339Z,45.03
2023-02-12T07:03:41.717Z,43.03
2023-02-12T07:06:10.676Z,41.90
2023-02-12T07:08:38.465Z,45.22
2023-02-12T07:11:06.955Z,45.83
2023-02-12T07:13:35.254Z,45.47
2023-02-12T07:16:07.662Z,44.80
2023-02-12T07:18:37.350Z,45.22
2023-02-12T07:21:06.988Z,48.45
2023-02-12T07:23:35.880Z,50.03
2023-02-12T07:26:05.728Z,47.23
2023-02-12T07:28:34.423Z,48.33
2023-02-12T07:31:07.871Z,47.40
2023-02-12T07:33:37.783Z,45.60
2023-02-12T07:36:07.500Z,47.47
2023-02-12T07:38:36.271Z,45.25
2023-02-12T07:41:12.185Z,45.72
2023-02-12T07:43:40.990Z,47.35
2023-02-12T07:46:13.756Z,50.95
2023-02-12T07:48:43.000Z,53.42
2023-02-12T07:51:12.514Z,50.08
2023-02-12T07:53:41.028Z,49.83
2023-02-12T07:56:11.106Z,51.88
2023-02-12T07:58:39.361Z,50.30
2023-02-12T08:01:15.669Z,50.03
2023-02-12T08:03:45.371Z,48.88
2023-02-12T08:06:15.494Z,49.97
2023-02-12T08:08:43.857Z,52.10
2023-02-12T08:11:13.258Z,49.88
2023-02-12T08:13:41.851Z,50.17
2023-02-12T08:16:12.043Z,50.57
2023-02-12T08:18:39.979Z,51.88
2023-02-12T08:21:11.711Z,56.58
2023-02-12T08:23:39.867Z,56.72
2023-02-12T08:26:09.914Z,53.23
2023-02-12T08:28:39.947Z,51.40
2023-02-12T08:31:12.815Z,53.22
2023-02-12T08:33:40.772Z,51.13
2023-02-12T08:36:11.468Z,51.67
2023-02-12T08:38:41.037Z,52.00
2023-02-12T08:41:11.000Z,44.83
2023-02-12T08:43:40.066Z,49.38
2023-02-12T08:46:09.967Z,48.45
2023-02-12T08:48:38.480Z,48.30
2023-02-12T08:51:08.541Z,45.67
2023-02-12T08:53:38.346Z,45.78
2023-02-12T08:56:07.195Z,43.85
2023-02-12T08:58:35.618Z,47.45
2023-02-12T09:01:03.856Z,49.50
2023-02-12T09:03:31.991Z,41.88
2023-02-12T09:05:59.789Z,45.28
2023-02-12T09:08:27.661Z,44.05
2023-02-12T09:10:56.781Z,41.80
2023-02-12T09:13:24.617Z,38.60
2023-02-12T09:15:52.677Z,37.37
2023-02-12T09:18:20.484Z,37.58
2023-02-12T09:20:48.304Z,41.90
2023-02-12T09:23:16.270Z,37.92
2023-02-12T09:25:46.387Z,36.88
2023-02-12T09:28:16.057Z,36.75
2023-02-12T09:30:43.946Z,36.85
2023-02-12T09:33:12.755Z,35.10
2023-02-12T09:35:41.802Z,36.43
2023-02-12T09:38:09.725Z,39.17
2023-02-12T09:40:45.481Z,38.65
2023-02-12T09:43:19.512Z,39.22
2023-02-12T09:45:56.828Z,36.88
2023-02-12T09:48:44.283Z,38.28
2023-02-12T09:51:12.901Z,38.22
2023-02-12T09:53:43.206Z,35.50
2023-02-12T09:56:15.306Z,32.25
2023-02-12T09:58:48.278Z,33.78
2023-02-12T10:01:19.027Z,34.42
2023-02-12T10:03:48.825Z,29.92
2023-02-12T10:06:19.872Z,32.28
2023-02-12T10:09:03.691Z,26.80
2023-02-12T10:11:54.292Z,17.00
2023-02-12T10:14:41.759Z,11.70
2023-02-12T10:17:20.414Z,7.13
2023-02-12T10:20:12.868Z,5.78
2023-02-12T10:22:56.756Z,8.13
2023-02-12T10:25:29.865Z,7.25
2023-02-12T10:28:02.069Z,8.18
2023-02-12T10:30:41.531Z,7.97
2023-02-12T10:33:17.209Z,9.60
2023-02-12T10:35:50.761Z,9.98
2023-02-12T10:38:22.407Z,9.43
2023-02-12T10:40:51.251Z,9.68
2023-02-12T10:43:19.110Z,9.00
2023-02-12T10:45:48.870Z,9.00
2023-02-12T10:48:21.144Z,9.10
2023-02-12T10:51:03.566Z,10.10
2023-02-12T10:53:34.227Z,10.38
2023-02-12T10:56:17.217Z,8.40
2023-02-12T10:58:53.851Z,7.70
2023-02-12T11:01:27.207Z,7.70
2023-02-12T11:03:55.596Z,9.23
2023-02-12T11:06:25.612Z,9.02
2023-02-12T11:08:54.289Z,9.27
2023-02-12T11:11:26.068Z,7.75
2023-02-12T11:14:00.734Z,6.75
2023-02-12T11:16:32.645Z,6.53
2023-02-12T11:19:02.809Z,3.80
2023-02-12T11:21:30.678Z,4.60
2023-02-12T11:23:58.767Z,3.13
2023-02-12T11:26:29.896Z,3.10
2023-02-12T11:28:59.543Z,3.30
2023-02-12T11:31:30.985Z,3.35
2023-02-12T11:34:10.333Z,1.83
2023-02-12T11:36:39.467Z,1.75
2023-02-12T11:39:14.768Z,2.23
2023-02-12T11:41:44.153Z,3.00
2023-02-12T11:44:14.274Z,1.85
2023-02-12T11:46:48.878Z,3.97
2023-02-12T11:49:21.815Z,1.90
2023-02-12T11:51:51.002Z,3.17
2023-02-12T11:54:23.743Z,2.20
2023-02-12T11:56:51.926Z,1.80
2023-02-12T11:59:30.558Z,2.30
2023-02-12T12:02:04.758Z,1.90
2023-02-12T12:04:35.655Z,2.38
2023-02-12T12:07:09.532Z,2.20
2023-02-12T12:09:43.774Z,2.22
2023-02-12T12:12:17.665Z,2.00
2023-02-12T12:15:07.308Z,2.63
2023-02-12T12:18:00.121Z,2.85
2023-02-12T12:20:33.277Z,14.27
2023-02-12T12:23:05.984Z,2.83
2023-02-12T12:25:42.905Z,2.13
2023-02-12T12:28:33.460Z,2.50
2023-02-12T12:31:07.523Z,4.78
2023-02-12T12:33:42.453Z,2.85
2023-02-12T12:36:31.941Z,3.45
2023-02-12T12:39:06.404Z,4.35
2023-02-12T12:41:42.229Z,4.68
2023-02-12T12:44:24.837Z,4.07
2023-02-12T12:47:06.636Z,5.32
2023-02-12T12:49:53.140Z,6.30
2023-02-12T12:52:49.780Z,5.47
2023-02-12T12:56:06.037Z,7.05
2023-02-12T12:58:43.311Z,5.68
2023-02-12T13:01:35.726Z,6.68
2023-02-12T13:04:48.335Z,7.93
2023-02-12T13:07:41.628Z,8.10
2023-02-12T13:10:20.560Z,8.35
2023-02-12T13:13:00.510Z,8.25
2023-02-12T13:15:37.219Z,7.72
2023-02-12T13:18:15.073Z,7.27
2023-02-12T13:20:52.211Z,6.70
2023-02-12T13:23:32.334Z,6.30
2023-02-12T13:26:07.393Z,6.00
2023-02-12T13:28:38.690Z,6.53
2023-02-12T13:31:29.981Z,7.47
2023-02-12T13:34:01.869Z,10.90
2023-02-12T13:36:29.918Z,8.70
2023-02-12T13:39:07.963Z,8.32
2023-02-12T13:41:37.096Z,7.90
2023-02-12T13:44:15.461Z,6.82
2023-02-12T13:46:55.813Z,6.32
2023-02-12T13:49:36.183Z,6.20
2023-02-12T13:52:07.882Z,6.70
2023-02-12T13:54:55.879Z,7.32
2023-02-12T13:57:23.847Z,8.45
2023-02-12T13:59:53.641Z,11.68
2023-02-12T14:02:42.524Z,8.80
2023-02-12T14:05:32.412Z,9.68
2023-02-12T14:08:05.739Z,8.55
2023-02-12T14:10:38.078Z,8.53
2023-02-12T14:13:17.461Z,9.32
2023-02-12T14:15:48.149Z,8.68
2023-02-12T14:18:26.816Z,7.60
2023-02-12T14:21:40.411Z,8.10
2023-02-12T14:24:50.600Z,8.80
2023-02-12T14:27:36.482Z,9.60
2023-02-12T14:30:38.341Z,10.10
2023-02-12T14:33:23.444Z,8.77
2023-02-12T14:36:16.411Z,10.23
2023-02-12T14:39:04.325Z,13.05
2023-02-12T14:41:41.981Z,11.27
2023-02-12T14:44:39.763Z,11.05
2023-02-12T14:47:17.277Z,11.25
2023-02-12T14:49:48.378Z,10.80
2023-02-12T14:52:19.825Z,9.90
2023-02-12T14:54:50.479Z,9.70
2023-02-12T14:57:25.221Z,12.63
2023-02-12T14:59:57.298Z,11.05
2023-02-12T15:02:27.325Z,10.40
2023-02-12T15:05:00.613Z,9.55
2023-02-12T15:07:34.119Z,10.27
2023-02-12T15:10:09.971Z,10.13
2023-02-12T15:12:42.137Z,9.27
2023-02-12T15:15:19.386Z,9.70
2023-02-12T15:17:56.512Z,9.68
2023-02-12T15:20:27.036Z,11.40
2023-02-12T15:22:54.864Z,10.33
2023-02-12T15:25:26.158Z,12.18
2023-02-12T15:27:57.920Z,12.60
2023-02-12T15:30:32.468Z,11.35
2023-02-12T15:33:03.437Z,11.02
2023-02-12T15:35:33.764Z,11.55
2023-02-12T15:38:02.077Z,12.18
2023-02-12T15:40:31.785Z,12.70
2023-02-12T15:43:01.625Z,12.85
2023-02-12T15:45:32.742Z,13.82
2023-02-12T15:48:13.443Z,14.18
2023-02-12T15:50:52.707Z,16.95
2023-02-12T15:53:21.433Z,15.23
2023-02-12T15:55:50.365Z,16.87
2023-02-12T15:58:24.755Z,16.88
2023-02-12T16:00:54.967Z,16.67
2023-02-12T16:03:25.173Z,18.67
2023-02-12T16:05:55.478Z,16.83
2023-02-12T16:08:25.008Z,16.88
2023-02-12T16:10:54.805Z,17.50
2023-02-12T16:13:28.235Z,19.13
2023-02-12T16:16:09.313Z,20.13
2023-02-12T16:18:37.181Z,19.30
2023-02-12T16:21:13.583Z,19.58
2023-02-12T16:23:44.343Z,20.42
2023-02-12T16:26:18.798Z,19.98
2023-02-12T16:28:49.292Z,21.17
2023-02-12T16:31:19.228Z,19.90
2023-02-12T16:33:49.341Z,19.80
2023-02-12T16:36:31.456Z,19.88
2023-02-12T16:39:01.542Z,22.40
2023-02-12T16:41:31.662Z,24.13
2023-02-12T16:44:23.619Z,24.65
2023-02-12T16:46:56.043Z,23.27
2023-02-12T16:49:25.904Z,24.45
2023-02-12T16:51:54.559Z,25.20
2023-02-12T16:54:31.174Z,25.40
2023-02-12T16:56:59.207Z,25.42
2023-02-12T16:59:27.553Z,27.35
2023-02-12T17:02:01.747Z,28.00
2023-02-12T17:04:29.620Z,28.57
2023-02-12T17:06:57.912Z,28.35
2023-02-12T17:09:25.937Z,28.88
2023-02-12T17:11:53.772Z,28.20
2023-02-12T17:14:21.991Z,29.75
2023-02-12T17:16:50.225Z,28.70
2023-02-12T17:19:19.364Z,29.13
2023-02-12T17:21:51.083Z,29.48
2023-02-12T17:24:21.892Z,27.67
2023-02-12T17:26:50.706Z,32.00
2023-02-12T17:29:19.307Z,28.77
2023-02-12T17:31:47.914Z,29.67
2023-02-12T17:34:16.744Z,29.73
2023-02-12T17:36:45.919Z,30.52
2023-02-12T17:39:14.947Z,31.83
2023-02-12T17:41:44.173Z,33.60
2023-02-12T17:44:13.846Z,32.25
2023-02-12T17:46:42.663Z,32.63
2023-02-12T17:49:10.786Z,32.80
2023-02-12T17:51:38.908Z,34.00
2023-02-12T17:54:08.070Z,32.30
2023-02-12T17:56:36.147Z,33.38
2023-02-12T17:59:03.956Z,32.65
2023-02-12T18:01:31.965Z,32.97
2023-02-12T18:04:00.224Z,35.97
2023-02-12T18:06:30.030Z,36.65
2023-02-12T18:08:58.508Z,39.20
2023-02-12T18:11:28.052Z,38.50
2023-02-12T18:13:58.289Z,36.28
2023-02-12T18:16:28.368Z,38.25
2023-02-12T18:18:57.097Z,38.42
2023-02-12T18:21:25.130Z,39.05
2023-02-12T18:23:54.346Z,40.33
2023-02-12T18:26:23.026Z,38.88
2023-02-12T18:28:53.717Z,42.17
2023-02-12T18:31:21.870Z,40.22
2023-02-12T18:33:49.730Z,38.75
2023-02-12T18:36:20.113Z,41.25
2023-02-12T18:38:49.668Z,40.40
2023-02-12T18:41:19.769Z,42.42
2023-02-12T18:43:47.981Z,40.05
2023-02-12T18:46:19.315Z,42.70
2023-02-12T18:48:47.687Z,40.30
2023-02-12T18:51:17.180Z,39.00
2023-02-12T18:53:46.350Z,39.67
2023-02-12T18:56:14.552Z,40.70
2023-02-12T18:58:42.465Z,42.55
2023-02-12T19:01:14.654Z,40.00
2023-02-12T19:03:43.970Z,38.63
2023-02-12T19:06:12.663Z,40.03
2023-02-12T19:08:40.607Z,40.77
2023-02-12T19:11:08.994Z,39.58
2023-02-12T19:13:37.114Z,38.53
2023-02-12T19:16:08.333Z,38.28
2023-02-12T19:18:36.375Z,41.57
2023-02-12T19:21:08.312Z,36.50
2023-02-12T19:23:36.541Z,40.60
2023-02-12T19:26:05.942Z,38.30
2023-02-12T19:28:34.632Z,40.17
2023-02-12T19:31:11.440Z,39.17
2023-02-12T19:33:40.793Z,43.72
2023-02-12T19:36:12.195Z,41.67
2023-02-12T19:38:40.541Z,42.33
2023-02-12T19:41:10.040Z,43.53
2023-02-12T19:43:38.398Z,43.17
2023-02-12T19:46:07.902Z,43.58
2023-02-12T19:48:36.274Z,40.90
2023-02-12T19:51:05.573Z,41.45
2023-02-12T19:53:34.822Z,39.30
2023-02-12T19:56:03.426Z,38.92
2023-02-12T19:58:31.446Z,38.63
2023-02-12T20:00:59.365Z,39.80
2023-02-12T20:03:27.302Z,42.22
2023-02-12T20:06:01.360Z,39.28
2023-02-12T20:08:29.267Z,39.72
2023-02-12T20:10:58.674Z,40.65
2023-02-12T20:13:27.343Z,37.78
2023-02-12T20:15:55.206Z,40.45
2023-02-12T20:18:23.735Z,37.70
2023-02-12T20:20:51.525Z,38.15
2023-02-12T20:23:19.352Z,40.60
2023-02-12T20:25:47.568Z,42.08
2023-02-12T20:28:16.815Z,39.22
2023-02-12T20:30:46.418Z,40.33
2023-02-12T20:33:14.281Z,37.47
2023-02-12T20:35:42.069Z,38.28
2023-02-12T20:38:09.840Z,32.60
2023-02-12T20:40:38.464Z,33.70
2023-02-12T20:43:06.317Z,34.40
2023-02-12T20:45:36.084Z,35.40
2023-02-12T20:48:03.954Z,36.88
2023-02-12T20:50:31.813Z,35.25
2023-02-12T20:52:59.653Z,36.30
2023-02-12T20:55:27.518Z,33.67
2023-02-12T20:57:55.364Z,34.72
2023-02-12T21:00:23.280Z,34.03
2023-02-12T21:02:54.442Z,35.10
2023-02-12T21:05:22.383Z,36.63
2023-02-12T21:07:51.445Z,37.60
2023-02-12T21:10:19.525Z,33.13
2023-02-12T21:12:47.312Z,33.13
2023-02-12T21:15:15.177Z,32.88
2023-02-12T21:17:42.992Z,35.97
2023-02-12T21:20:12.534Z,33.75
2023-02-12T21:22:40.352Z,32.45
2023-02-12T21:25:08.493Z,31.77
2023-02-12T21:27:40.451Z,32.75
2023-02-12T21:30:09.585Z,28.65
2023-02-12T21:32:37.482Z,27.02
2023-02-12T21:35:05.445Z,30.77
2023-02-12T21:37:34.598Z,29.52
2023-02-12T21:40:02.423Z,28.33
2023-02-12T21:42:31.096Z,28.45
2023-02-12T21:44:58.939Z,29.13
2023-02-12T21:47:27.169Z,28.83
2023-02-12T21:49:54.969Z,31.95
2023-02-12T21:52:22.730Z,29.90
2023-02-12T21:54:53.438Z,30.33
2023-02-12T21:57:21.788Z,28.48
2023-02-12T21:59:49.564Z,26.92
2023-02-12T22:02:17.345Z,29.17
2023-02-12T22:04:45.430Z,29.48
2023-02-12T22:07:13.200Z,31.40
2023-02-12T22:09:40.929Z,30.35
2023-02-12T22:12:10.129Z,29.90
2023-02-12T22:14:37.913Z,32.90
2023-02-12T22:17:05.732Z,31.45
2023-02-12T22:19:33.730Z,27.50
2023-02-12T22:22:01.501Z,28.83
2023-02-12T22:24:29.313Z,30.25
2023-02-12T22:26:57.198Z,28.63
2023-02-12T22:29:26.296Z,27.13
2023-02-12T22:31:54.161Z,27.30
2023-02-12T22:34:22.039Z,27.75
2023-02-12T22:36:49.858Z,27.05
2023-02-12T22:39:18.436Z,24.97
2023-02-12T22:41:46.991Z,25.48
2023-02-12T22:44:19.453Z,26.77
2023-02-12T22:46:50.307Z,26.83
2023-02-12T22:49:18.494Z,21.83
2023-02-12T22:51:46.695Z,21.50
2023-02-12T22:54:15.808Z,22.42
2023-02-12T22:56:44.106Z,23.92
2023-02-12T22:59:13.122Z,23.60
2023-02-12T23:01:40.949Z,25.20
2023-02-12T23:04:14.790Z,25.37
2023-02-12T23:06:42.603Z,25.38
2023-02-12T23:09:13.985Z,27.52
2023-02-12T23:11:41.848Z,30.50
2023-02-12T23:14:09.619Z,33.42
2023-02-12T23:16:37.628Z,27.77
2023-02-12T23:19:05.833Z,25.55
2023-02-12T23:21:35.252Z,24.40
2023-02-12T23:24:03.025Z,26.80
2023-02-12T23:26:31.073Z,26.25
2023-02-12T23:28:59.313Z,26.83
2023-02-12T23:31:27.254Z,24.92
2023-02-12T23:33:55.172Z,25.08
2023-02-12T23:36:22.966Z,26.95
2023-02-12T23:38:52.109Z,22.95
2023-02-12T23:41:19.987Z,24.27
2023-02-12T23:43:47.727Z,23.35
2023-02-12T23:46:15.574Z,23.48
2023-02-12T23:48:44.404Z,22.02
2023-02-12T23:51:12.246Z,20.65
2023-02-12T23:53:40.028Z,20.10
2023-02-12T23:56:09.570Z,20.48
2023-02-12T23:58:37.366Z,21.52
